Time;durP1;ratioP1;P1;durP2;ratioP2;P2;SDS_P1;SDS_P2;PMS_P1;PMS_P2;Temp;Humidity;BMP_temperature;BMP_pressure;BME280_temperature;BME280_humidity;BME280_pressure;Samples;Min_cycle;Max_cycle;Signal;HPM_P1;HPM_P2
2021/01/16 00:02:04;;;;;;;10.77;5.37;;;-3.50;1.00;;;;;;4904901;28;20609;-76
2021/01/16 00:04:26;;;;;;;11.13;5.57;;;;;;;;;;4903901;28;20675;-76
2021/01/16 00:06:49;;;;;;;8.07;4.87;;;;;;;;;;4910142;28;20615;-76
2021/01/16 00:09:11;;;;;;;7.97;4.77;;;-3.40;99.90;;;;;;4905181;28;20616;-77
2021/01/16 00:11:33;;;;;;;8.57;4.60;;;-3.60;1.00;;;;;;4902694;28;20650;-76
2021/01/16 00:13:56;;;;;;;9.03;4.57;;;-3.50;1.00;;;;;;4908786;28;21015;-77
2021/01/16 00:16:19;;;;;;;9.23;5.00;;;-3.70;99.90;;;;;;4905602;28;20605;-76
2021/01/16 00:18:41;;;;;;;9.67;4.73;;;;;;;;;;4904856;28;20671;-77
2021/01/16 00:21:03;;;;;;;10.87;5.33;;;-3.10;99.90;;;;;;4903653;28;20658;-76
2021/01/16 00:23:27;;;;;;;12.07;5.67;;;-4.00;1.00;;;;;;4911241;28;21069;-75
2021/01/16 00:25:49;;;;;;;10.13;4.83;;;;;;;;;;4904343;28;21178;-76
2021/01/16 00:28:17;;;;;;;9.40;5.70;;;-3.80;1.00;;;;;;4893295;28;20608;-77
2021/01/16 00:30:39;;;;;;;10.17;5.37;;;;;;;;;;4903333;28;20658;-77
2021/01/16 00:33:16;;;;;;;9.83;5.27;;;-2.90;99.90;;;;;;4903425;28;20647;-76
2021/01/16 00:35:38;;;;;;;8.73;5.07;;;-3.90;99.90;;;;;;4904603;28;20573;-77
2021/01/16 00:38:00;;;;;;;9.43;4.93;;;-3.80;99.90;;;;;;4903253;28;21055;-77
2021/01/16 00:40:23;;;;;;;10.87;5.53;;;-3.90;99.90;;;;;;4905135;28;21317;-76
2021/01/16 00:42:47;;;;;;;10.70;5.50;;;-3.80;57.10;;;;;;4907355;28;20620;-74
2021/01/16 00:45:10;;;;;;;12.40;5.50;;;-4.30;1.00;;;;;;4904966;28;20621;-77
2021/01/16 00:47:34;;;;;;;11.20;5.87;;;-3.90;99.90;;;;;;4903523;28;20609;-75
2021/01/16 00:49:57;;;;;;;11.80;5.83;;;-3.80;99.90;;;;;;4904317;28;20617;-76
2021/01/16 00:52:19;;;;;;;14.20;6.60;;;;;;;;;;4904325;28;20730;-74
2021/01/16 00:54:42;;;;;;;12.40;5.83;;;-3.80;99.90;;;;;;4888981;28;20610;-77
2021/01/16 00:57:07;;;;;;;14.27;6.40;;;;;;;;;;4880427;28;20628;-76
2021/01/16 00:59:29;;;;;;;11.57;5.57;;;-3.90;99.90;;;;;;4905944;28;20629;-76
2021/01/16 01:01:54;;;;;;;11.23;6.13;;;-3.90;99.90;;;;;;4903876;28;20624;-76
2021/01/16 01:04:18;;;;;;;14.77;6.37;;;;;;;;;;4886371;28;21101;-76
2021/01/16 01:06:42;;;;;;;11.60;6.63;;;-3.90;2.00;;;;;;4903538;28;20630;-75
2021/01/16 01:09:05;;;;;;;12.33;6.77;;;;;;;;;;4900326;28;20682;-77
2021/01/16 01:11:27;;;;;;;13.70;7.43;;;;;;;;;;4899094;28;20705;-75
2021/01/16 01:13:50;;;;;;;13.17;6.50;;;-4.10;1.00;;;;;;4906267;28;20610;-74
2021/01/16 01:16:15;;;;;;;12.00;6.67;;;-3.80;1.00;;;;;;4904478;28;20617;-76
2021/01/16 01:18:37;;;;;;;16.03;7.70;;;-3.80;99.90;;;;;;4901866;28;20605;-75
2021/01/16 01:20:59;;;;;;;13.93;7.40;;;;;;;;;;4902303;28;20645;-76
2021/01/16 01:23:22;;;;;;;14.23;6.97;;;-3.90;99.90;;;;;;4903516;28;20679;-76
2021/01/16 01:25:45;;;;;;;11.93;6.20;;;;;;;;;;4902512;28;20621;-75
2021/01/16 01:28:07;;;;;;;14.57;7.37;;;;;;;;;;4903355;28;20602;-76
2021/01/16 01:30:31;;;;;;;13.43;7.47;;;-3.80;1.00;;;;;;4905058;28;21164;-75
2021/01/16 01:32:53;;;;;;;15.23;7.37;;;;;;;;;;4905928;28;20666;-74
2021/01/16 01:35:17;;;;;;;12.43;6.70;;;-3.80;1.00;;;;;;4886335;28;20621;-74
2021/01/16 01:37:42;;;;;;;11.67;5.90;;;-3.90;94.40;;;;;;4900108;28;21162;-75
2021/01/16 01:40:07;;;;;;;9.53;5.37;;;-3.80;1.00;;;;;;4905683;28;20636;-75
2021/01/16 01:42:30;;;;;;;10.77;6.10;;;;;;;;;;4903377;28;20605;-75
2021/01/16 01:44:54;;;;;;;11.60;6.13;;;;;;;;;;4901823;28;20621;-75
2021/01/16 01:47:18;;;;;;;13.97;6.70;;;-3.80;1.00;;;;;;4903511;28;20742;-76
2021/01/16 01:49:41;;;;;;;15.13;6.87;;;-3.70;99.90;;;;;;4900110;28;20642;-74
2021/01/16 01:52:03;;;;;;;12.67;7.07;;;;;;;;;;4905710;28;20600;-74
2021/01/16 01:54:26;;;;;;;12.80;6.77;;;-3.80;83.50;;;;;;4905390;28;20613;-74
2021/01/16 01:56:51;;;;;;;14.07;7.07;;;-3.90;1.00;;;;;;4907927;28;20610;-73
2021/01/16 01:59:14;;;;;;;14.10;7.27;;;;;;;;;;4903797;28;20651;-74
2021/01/16 02:01:48;;;;;;;13.20;7.13;;;-3.90;59.20;;;;;;4902887;28;20651;-74
2021/01/16 02:04:11;;;;;;;12.50;6.77;;;;;;;;;;4903349;28;20693;-76
2021/01/16 02:06:33;;;;;;;13.40;6.80;;;-3.90;1.00;;;;;;4906584;28;20627;-76
2021/01/16 02:08:56;;;;;;;14.57;6.40;;;-3.80;1.00;;;;;;4904453;28;21044;-73
2021/01/16 02:11:19;;;;;;;12.47;6.40;;;;;;;;;;4902994;28;20645;-75
2021/01/16 02:13:42;;;;;;;12.17;6.77;;;-3.80;99.90;;;;;;4901809;28;20622;-74
2021/01/16 02:16:09;;;;;;;13.97;6.73;;;-4.00;99.90;;;;;;4892764;28;21178;-74
2021/01/16 02:18:36;;;;;;;12.53;6.63;;;-4.00;1.00;;;;;;4901834;28;20609;-76
2021/01/16 02:21:00;;;;;;;13.90;7.17;;;-4.00;99.90;;;;;;4902844;28;20676;-76
2021/01/16 02:23:33;;;;;;;29.90;13.03;;;-4.00;99.90;;;;;;4884928;28;20714;-74
2021/01/16 02:26:44;;;;;;;23.37;10.40;;;-4.10;1.00;;;;;;4894913;28;21161;-74
2021/01/16 02:29:09;;;;;;;16.43;8.07;;;-4.00;99.90;;;;;;4902550;28;20644;-75
2021/01/16 02:31:33;;;;;;;14.30;7.60;;;-4.00;1.00;;;;;;4905949;28;20577;-74
2021/01/16 02:33:57;;;;;;;14.47;7.90;;;-4.00;1.00;;;;;;4905649;28;21153;-75
2021/01/16 02:36:29;;;;;;;18.37;9.00;;;-4.00;1.00;;;;;;4896488;28;21122;-75
2021/01/16 02:39:02;;;;;;;13.50;7.27;;;-4.20;1.00;;;;;;4906920;28;20955;-75
2021/01/16 02:41:36;;;;;;;15.80;8.57;;;-4.00;1.00;;;;;;4896412;28;20661;-74
2021/01/16 02:44:08;;;;;;;13.70;7.30;;;-4.00;1.00;;;;;;4906746;28;21066;-76
2021/01/16 02:46:38;;;;;;;12.73;6.47;;;-4.10;1.00;;;;;;4906727;28;20616;-74
2021/01/16 02:49:20;;;;;;;12.13;6.10;;;-4.00;99.90;;;;;;4906676;28;21035;-76
2021/01/16 02:52:01;;;;;;;10.23;5.60;;;-4.10;1.00;;;;;;4910405;28;20666;-75
2021/01/16 02:54:24;;;;;;;10.67;5.97;;;;;;;;;;4908630;28;20581;-76
2021/01/16 02:56:46;;;;;;;16.63;7.83;;;-4.20;1.00;;;;;;4909288;28;20665;-76
2021/01/16 02:59:09;;;;;;;17.03;9.20;;;;;;;;;;4906778;28;20612;-76
2021/01/16 03:01:35;;;;;;;22.03;10.13;;;-3.80;1.00;;;;;;4904360;28;20651;-76
2021/01/16 03:03:57;;;;;;;18.20;9.60;;;-3.90;90.70;;;;;;4907406;28;20621;-76
2021/01/16 03:06:20;;;;;;;18.03;8.53;;;-4.80;99.90;;;;;;4906527;28;20608;-76
2021/01/16 03:08:42;;;;;;;16.00;8.40;;;-3.80;99.90;;;;;;4904800;28;20668;-75
2021/01/16 03:11:07;;;;;;;16.93;8.43;;;-3.80;1.00;;;;;;4906493;28;21481;-76
2021/01/16 03:13:31;;;;;;;18.47;8.83;;;-4.10;99.90;;;;;;4906152;28;20598;-76
2021/01/16 03:15:55;;;;;;;19.90;8.67;;;-3.80;99.90;;;;;;4905769;28;20609;-77
2021/01/16 03:18:24;;;;;;;11.23;5.97;;;-4.00;1.00;;;;;;4907317;28;20609;-76
2021/01/16 03:20:46;;;;;;;13.83;7.63;;;;;;;;;;4909686;28;20678;-75
2021/01/16 03:23:08;;;;;;;14.03;7.47;;;;;;;;;;4908896;28;20650;-76
2021/01/16 03:25:32;;;;;;;14.33;7.60;;;-3.90;16.50;;;;;;4906692;28;20614;-75
2021/01/16 03:27:55;;;;;;;13.40;7.07;;;-3.90;99.90;;;;;;4913395;28;21141;-75
2021/01/16 03:30:18;;;;;;;11.73;7.13;;;-3.70;99.90;;;;;;4889045;28;20650;-76
2021/01/16 03:32:41;;;;;;;13.47;7.43;;;-3.90;99.90;;;;;;4906657;28;20662;-76
2021/01/16 03:35:06;;;;;;;12.07;6.37;;;-4.00;1.00;;;;;;4906624;28;20614;-74
2021/01/16 03:37:28;;;;;;;15.30;7.47;;;-4.50;1.00;;;;;;4906619;28;21032;-74
2021/01/16 03:39:50;;;;;;;17.20;8.57;;;;;;;;;;4906480;28;20660;-74
2021/01/16 03:42:13;;;;;;;18.70;9.17;;;;;;;;;;4913936;28;21262;-74
2021/01/16 03:44:36;;;;;;;16.37;8.87;;;-4.10;99.90;;;;;;4905255;28;20614;-74
2021/01/16 03:46:58;;;;;;;17.77;8.33;;;;;;;;;;4904747;28;20617;-76
2021/01/16 03:49:20;;;;;;;18.57;10.50;;;-4.00;1.00;;;;;;4890118;28;20661;-75
2021/01/16 03:51:43;;;;;;;17.00;8.77;;;-4.00;1.00;;;;;;4909110;28;21177;-75
2021/01/16 03:54:06;;;;;;;18.03;9.87;;;;;;;;;;4907176;28;21104;-74
2021/01/16 03:56:29;;;;;;;16.27;8.57;;;;;;;;;;4899782;28;20616;-73
2021/01/16 03:58:53;;;;;;;17.17;8.90;;;;;;;;;;4903484;28;20624;-75
2021/01/16 04:01:15;;;;;;;17.83;8.50;;;;;;;;;;4905771;28;21173;-76
2021/01/16 04:03:37;;;;;;;22.47;9.93;;;;;;;;;;4906109;28;21250;-75
2021/01/16 04:06:00;;;;;;;17.07;10.13;;;-3.90;1.00;;;;;;4913411;28;20612;-75
2021/01/16 04:08:23;;;;;;;20.70;10.80;;;-3.90;1.00;;;;;;4906913;28;20695;-76
2021/01/16 04:10:45;;;;;;;17.63;9.90;;;;;;;;;;4910056;28;21324;-75
2021/01/16 04:13:07;;;;;;;20.83;11.00;;;;;;;;;;4905980;28;20662;-74
2021/01/16 04:15:30;;;;;;;18.23;11.43;;;;;;;;;;4905946;28;20636;-76
2021/01/16 04:17:52;;;;;;;22.37;11.90;;;-3.60;1.00;;;;;;4912913;28;21036;-76
2021/01/16 04:20:14;;;;;;;20.63;9.43;;;;;;;;;;4906548;28;20617;-76
2021/01/16 04:22:38;;;;;;;21.63;10.33;;;-4.80;1.00;;;;;;4908624;28;20593;-77
2021/01/16 04:25:01;;;;;;;20.83;12.00;;;-4.10;1.00;;;;;;4907357;28;20620;-76
2021/01/16 04:27:23;;;;;;;15.53;8.93;;;;;;;;;;4906593;28;20629;-76
2021/01/16 04:29:46;;;;;;;21.00;10.47;;;;;;;;;;4906700;28;20690;-74
2021/01/16 04:32:08;;;;;;;18.37;9.80;;;;;;;;;;4906470;28;20639;-75
2021/01/16 04:34:31;;;;;;;18.27;9.90;;;;;;;;;;4904255;28;20613;-77
2021/01/16 04:36:53;;;;;;;18.47;9.77;;;;;;;;;;4904740;28;20622;-76
2021/01/16 04:39:16;;;;;;;19.30;9.10;;;;;;;;;;4905166;28;21039;-77
2021/01/16 04:41:45;;;;;;;19.70;9.67;;;-4.50;1.00;;;;;;4908138;28;20672;-76
2021/01/16 04:44:08;;;;;;;21.30;9.97;;;;;;;;;;4905897;28;20620;-77
2021/01/16 04:46:31;;;;;;;17.87;8.57;;;;;;;;;;4905712;28;20606;-76
2021/01/16 04:48:59;;;;;;;19.37;9.53;;;-4.10;1.00;;;;;;4905235;28;21037;-77
2021/01/16 04:51:23;;;;;;;17.83;9.33;;;-4.30;1.00;;;;;;4907080;28;21177;-76
2021/01/16 04:53:47;;;;;;;16.93;9.30;;;-4.30;1.00;;;;;;4909266;28;20710;-74
2021/01/16 04:56:10;;;;;;;18.00;8.90;;;-4.20;1.00;;;;;;4903968;28;20617;-76
2021/01/16 04:58:35;;;;;;;18.40;8.87;;;-4.30;1.00;;;;;;4906203;28;20714;-76
2021/01/16 05:01:01;;;;;;;16.60;8.80;;;-4.20;1.00;;;;;;4888573;28;20716;-76
2021/01/16 05:03:24;;;;;;;16.97;8.77;;;-4.00;1.00;;;;;;4907050;28;20618;-76
2021/01/16 05:05:48;;;;;;;15.97;8.37;;;-4.00;1.00;;;;;;4906451;28;20656;-75
2021/01/16 05:08:11;;;;;;;17.93;9.00;;;-4.00;1.00;;;;;;4906539;28;20604;-76
2021/01/16 05:10:38;;;;;;;20.43;10.40;;;-4.00;1.00;;;;;;4904872;28;20653;-76
2021/01/16 05:13:05;;;;;;;17.40;10.13;;;-3.70;1.00;;;;;;4903602;28;20691;-76
2021/01/16 05:15:31;;;;;;;21.50;9.97;;;-3.90;1.00;;;;;;4904750;28;20668;-75
2021/01/16 05:17:59;;;;;;;19.33;9.70;;;-3.90;1.00;;;;;;4903535;28;20590;-76
2021/01/16 05:20:22;;;;;;;20.93;11.03;;;-3.80;1.00;;;;;;4888155;28;20635;-76
2021/01/16 05:22:44;;;;;;;22.97;11.10;;;-3.90;1.00;;;;;;4906312;28;20689;-77
2021/01/16 05:25:08;;;;;;;25.80;11.03;;;-3.90;1.00;;;;;;4905499;28;21317;-76
2021/01/16 05:27:34;;;;;;;27.40;11.43;;;-3.90;1.00;;;;;;4904430;28;21150;-76
2021/01/16 05:30:01;;;;;;;29.00;13.20;;;-3.80;1.00;;;;;;4904336;28;20649;-76
2021/01/16 05:32:24;;;;;;;23.80;10.13;;;-3.70;1.00;;;;;;4905335;28;20617;-76
2021/01/16 05:34:46;;;;;;;24.50;11.07;;;;;;;;;;4904432;28;20622;-74
2021/01/16 05:37:08;;;;;;;24.00;11.43;;;-3.70;1.00;;;;;;4911083;28;21231;-76
2021/01/16 05:39:32;;;;;;;22.00;11.50;;;-3.80;1.00;;;;;;4904306;28;21019;-76
2021/01/16 05:41:57;;;;;;;19.67;10.77;;;-3.70;1.00;;;;;;4903342;28;20692;-76
2021/01/16 05:44:20;;;;;;;23.00;11.03;;;;;;;;;;4905234;28;20613;-75
2021/01/16 05:46:44;;;;;;;21.47;11.17;;;-3.70;1.00;;;;;;4905934;28;20730;-76
2021/01/16 05:49:08;;;;;;;22.40;12.03;;;-3.80;1.00;;;;;;4904822;28;20964;-75
2021/01/16 05:51:31;;;;;;;23.97;12.57;;;-3.70;1.00;;;;;;4885983;28;20665;-77
2021/01/16 05:53:54;;;;;;;29.00;13.57;;;-3.70;1.00;;;;;;4903282;28;21056;-75
2021/01/16 05:56:16;;;;;;;31.60;13.93;;;;;;;;;;4904992;28;20682;-75
2021/01/16 05:58:44;;;;;;;32.77;14.70;;;-3.70;1.00;;;;;;4902970;28;20622;-76
2021/01/16 06:01:07;;;;;;;30.43;15.17;;;-3.70;1.00;;;;;;4902077;28;20637;-74
2021/01/16 06:03:32;;;;;;;32.47;15.00;;;-3.70;1.00;;;;;;4906862;28;20581;-76
2021/01/16 06:05:55;;;;;;;30.77;15.00;;;-3.70;1.00;;;;;;4906748;28;20601;-75
2021/01/16 06:08:18;;;;;;;26.40;13.30;;;-3.70;1.00;;;;;;4903313;28;20750;-76
2021/01/16 06:10:40;;;;;;;25.37;12.93;;;;;;;;;;4903922;28;20756;-76
2021/01/16 06:13:13;;;;;;;26.80;13.93;;;-3.60;1.00;;;;;;4910927;28;20609;-74
2021/01/16 06:15:38;;;;;;;22.23;11.73;;;-3.60;1.00;;;;;;4907587;28;20670;-75
2021/01/16 06:18:00;;;;;;;21.17;11.10;;;;;;;;;;4906890;28;20631;-75
2021/01/16 06:20:23;;;;;;;21.77;11.43;;;;;;;;;;4903962;28;20663;-74
2021/01/16 06:22:49;;;;;;;21.40;11.60;;;-3.40;1.00;;;;;;4903914;28;20980;-76
2021/01/16 06:25:20;;;;;;;24.80;14.00;;;-3.70;1.00;;;;;;4904437;28;20606;-74
2021/01/16 06:27:45;;;;;;;26.03;14.07;;;-3.50;1.00;;;;;;4905516;28;20609;-75
2021/01/16 06:30:08;;;;;;;23.07;12.83;;;-3.60;1.00;;;;;;4904760;28;20721;-74
2021/01/16 06:32:30;;;;;;;26.37;13.20;;;-3.50;1.00;;;;;;4902426;28;20614;-74
2021/01/16 06:35:05;;;;;;;20.23;11.60;;;-3.40;1.00;;;;;;4903830;28;20621;-73
2021/01/16 06:37:30;;;;;;;19.13;11.57;;;-3.40;1.00;;;;;;4889676;28;20694;-74
2021/01/16 06:39:56;;;;;;;19.30;10.40;;;-3.40;1.00;;;;;;4906550;28;21004;-74
2021/01/16 06:42:22;;;;;;;18.97;11.33;;;-2.60;1.00;;;;;;4908704;28;20648;-74
2021/01/16 06:44:44;;;;;;;15.77;9.87;;;;;;;;;;4902629;28;20703;-74
2021/01/16 06:47:07;;;;;;;12.73;7.97;;;-3.30;1.00;;;;;;4903493;28;20622;-72
2021/01/16 06:49:31;;;;;;;13.30;8.13;;;-3.30;1.00;;;;;;4905276;28;20617;-75
2021/01/16 06:51:55;;;;;;;11.73;7.30;;;-3.10;1.00;;;;;;4905186;28;21173;-74
2021/01/16 06:54:22;;;;;;;11.97;7.30;;;-3.30;1.00;;;;;;4902859;28;20631;-75
2021/01/16 06:56:59;;;;;;;13.87;8.50;;;-3.20;1.00;;;;;;4900212;28;20629;-75
2021/01/16 06:59:27;;;;;;;12.43;7.90;;;-3.20;1.00;;;;;;4903749;28;20581;-74
2021/01/16 07:01:50;;;;;;;15.43;8.87;;;;;;;;;;4899659;28;21041;-75
2021/01/16 07:04:13;;;;;;;16.27;8.67;;;-3.10;1.00;;;;;;4904630;28;20940;-75
2021/01/16 07:06:46;;;;;;;14.40;8.33;;;-2.90;1.00;;;;;;4903479;28;21234;-74
2021/01/16 07:09:09;;;;;;;11.97;7.53;;;-3.00;1.00;;;;;;4903643;28;20585;-74
2021/01/16 07:11:42;;;;;;;15.20;8.17;;;-2.80;1.00;;;;;;4903737;28;20637;-75
2021/01/16 07:14:09;;;;;;;11.30;7.07;;;-2.90;1.00;;;;;;4902907;28;20632;-73
2021/01/16 07:16:35;;;;;;;13.83;8.57;;;-2.90;1.00;;;;;;4884805;28;20627;-73
2021/01/16 07:18:57;;;;;;;13.70;8.33;;;-2.60;1.00;;;;;;4903409;28;20636;-75
2021/01/16 07:21:20;;;;;;;11.57;6.80;;;-2.90;1.00;;;;;;4902957;28;20793;-74
2021/01/16 07:23:42;;;;;;;11.27;6.80;;;-2.90;1.00;;;;;;4906795;28;20594;-74
2021/01/16 07:26:08;;;;;;;16.40;9.93;;;-2.70;1.00;;;;;;4905897;28;21278;-74
2021/01/16 07:28:31;;;;;;;16.70;9.63;;;-2.60;99.90;;;;;;4906649;28;20636;-75
2021/01/16 07:30:56;;;;;;;17.97;10.97;;;-2.80;1.00;;;;;;4903215;28;20672;-75
2021/01/16 07:33:19;;;;;;;12.93;7.50;;;-2.70;99.90;;;;;;4905584;28;20616;-73
2021/01/16 07:35:47;;;;;;;14.30;8.83;;;-2.60;99.90;;;;;;4910206;28;20682;-74
2021/01/16 07:38:13;;;;;;;13.20;8.27;;;-2.60;99.90;;;;;;4906977;28;20628;-75
2021/01/16 07:40:43;;;;;;;18.33;9.83;;;-2.30;99.90;;;;;;4905457;28;20615;-74
2021/01/16 07:43:27;;;;;;;15.90;9.00;;;-2.50;1.00;;;;;;4897836;28;20665;-75
2021/01/16 07:45:50;;;;;;;12.17;7.60;;;-2.40;1.00;;;;;;4907437;28;20594;-74
2021/01/16 07:48:24;;;;;;;16.77;8.97;;;-2.30;1.00;;;;;;4901342;28;20647;-75
2021/01/16 07:50:52;;;;;;;16.83;9.57;;;-2.30;1.00;;;;;;4911908;28;21309;-74
2021/01/16 07:53:26;;;;;;;12.23;7.57;;;-2.00;1.00;;;;;;4889092;28;20661;-74
2021/01/16 07:56:00;;;;;;;18.53;10.00;;;-2.00;1.00;;;;;;4903541;28;21180;-74
2021/01/16 07:58:33;;;;;;;15.20;9.50;;;-2.20;99.90;;;;;;4900440;28;20709;-75
2021/01/16 08:01:00;;;;;;;18.87;9.80;;;-2.10;1.00;;;;;;4900211;28;21278;-75
2021/01/16 08:03:28;;;;;;;22.00;11.03;;;-2.40;1.00;;;;;;4887590;28;20662;-74
2021/01/16 08:06:03;;;;;;;21.77;11.87;;;-2.10;99.90;;;;;;4905991;28;20624;-74
2021/01/16 08:08:52;;;;;;;18.87;10.27;;;-1.70;92.30;;;;;;4899611;28;20642;-75
2021/01/16 08:11:16;;;;;;;16.30;9.10;;;-1.80;99.90;;;;;;4898047;28;21213;-74
2021/01/16 08:13:39;;;;;;;16.37;9.23;;;-1.70;3.90;;;;;;4898241;28;20582;-74
2021/01/16 08:16:03;;;;;;;21.27;11.20;;;-1.70;1.00;;;;;;4898151;28;20586;-75
2021/01/16 08:18:30;;;;;;;19.63;10.30;;;-1.80;1.00;;;;;;4897812;28;20659;-74
2021/01/16 08:20:54;;;;;;;16.97;9.40;;;-1.60;99.90;;;;;;4897971;28;20590;-74
2021/01/16 08:23:25;;;;;;;17.23;9.00;;;-1.50;99.90;;;;;;4896573;28;20630;-75
2021/01/16 08:25:47;;;;;;;21.23;10.50;;;;;;;;;;4896581;28;20617;-74
2021/01/16 08:28:23;;;;;;;14.30;8.63;;;-1.60;1.00;;;;;;4897642;28;20604;-75
2021/01/16 08:30:45;;;;;;;19.43;10.83;;;;;;;;;;4897700;28;20640;-75
2021/01/16 08:33:09;;;;;;;17.53;10.20;;;-1.40;99.90;;;;;;4896301;28;20602;-74
2021/01/16 08:35:41;;;;;;;17.77;10.07;;;-1.70;1.00;;;;;;4897697;28;20586;-74
2021/01/16 08:38:26;;;;;;;15.57;8.27;;;-1.30;99.90;;;;;;4898495;28;20581;-74
2021/01/16 08:40:53;;;;;;;18.53;9.50;;;-1.90;99.90;;;;;;4902511;28;20610;-73
2021/01/16 08:43:29;;;;;;;16.63;9.23;;;-0.90;1.00;;;;;;4908920;28;20640;-75
2021/01/16 08:46:06;;;;;;;16.90;8.47;;;-1.10;1.00;;;;;;4907621;28;20580;-73
2021/01/16 08:48:28;;;;;;;18.30;9.97;;;;;;;;;;4907866;28;20657;-72
2021/01/16 08:50:51;;;;;;;22.57;12.03;;;-0.60;1.00;;;;;;4913446;28;20608;-73
2021/01/16 08:53:21;;;;;;;16.50;8.73;;;-0.70;99.90;;;;;;4908459;28;20647;-74
2021/01/16 08:55:43;;;;;;;22.47;11.03;;;;;;;;;;4908134;28;20646;-73
2021/01/16 08:58:10;;;;;;;21.97;11.47;;;-0.50;99.90;;;;;;4901952;28;20659;-73
2021/01/16 09:00:33;;;;;;;19.63;10.00;;;-0.50;1.00;;;;;;4904625;28;20648;-73
2021/01/16 09:03:07;;;;;;;19.63;9.50;;;-0.20;99.90;;;;;;4903366;28;20704;-72
2021/01/16 09:05:32;;;;;;;13.27;7.60;;;;;;;;;;4907756;28;20613;-73
2021/01/16 09:07:54;;;;;;;10.90;6.00;;;-0.20;1.00;;;;;;4912093;28;21102;-75
2021/01/16 09:10:23;;;;;;;17.03;9.30;;;-0.20;99.90;;;;;;4904188;28;20645;-73
2021/01/16 09:12:46;;;;;;;15.63;8.10;;;;;;;;;;4908408;28;20998;-72
2021/01/16 09:15:18;;;;;;;15.67;8.40;;;0.40;99.90;;;;;;4897942;28;20617;-72
2021/01/16 09:17:41;;;;;;;14.97;9.00;;;;;;;;;;4908781;28;20625;-74
2021/01/16 09:20:03;;;;;;;16.70;9.57;;;;;;;;;;4906199;28;20625;-73
2021/01/16 09:22:27;;;;;;;17.03;10.20;;;0.90;1.00;;;;;;4904712;28;20661;-73
2021/01/16 09:24:51;;;;;;;15.43;9.47;;;0.50;99.90;;;;;;4903288;28;20663;-72
2021/01/16 09:27:31;;;;;;;12.90;8.00;;;0.60;1.00;;;;;;4887002;28;21031;-74
2021/01/16 09:29:54;;;;;;;16.20;9.40;;;;;;;;;;4899940;28;20703;-73
2021/01/16 09:32:32;;;;;;;18.33;10.77;;;0.60;1.00;;;;;;4910201;28;20625;-76
2021/01/16 09:34:54;;;;;;;15.47;10.47;;;;;;;;;;4906366;28;20985;-73
2021/01/16 09:37:24;;;;;;;15.63;8.07;;;1.20;1.00;;;;;;4903345;28;20699;-74
2021/01/16 09:40:01;;;;;;;15.63;8.13;;;1.00;1.00;;;;;;4898597;28;20577;-74
2021/01/16 09:42:23;;;;;;;13.80;8.27;;;;;;;;;;4908100;28;20625;-75
2021/01/16 09:44:53;;;;;;;12.43;7.67;;;1.10;1.00;;;;;;4902396;28;20606;-76
2021/01/16 09:47:50;;;;;;;12.50;7.63;;;1.20;1.00;;;;;;4902780;28;20738;-75
2021/01/16 09:50:14;;;;;;;9.80;7.27;;;1.10;1.00;;;;;;4900522;28;20617;-75
2021/01/16 09:52:36;;;;;;;13.70;8.50;;;1.60;99.90;;;;;;4887740;28;20618;-74
2021/01/16 09:54:58;;;;;;;14.33;8.13;;;0.90;1.00;;;;;;4888720;28;20616;-74
2021/01/16 09:57:35;;;;;;;15.57;9.03;;;1.00;99.90;;;;;;4904059;28;20241;-74
2021/01/16 10:00:08;;;;;;;19.23;10.07;;;0.90;1.00;;;;;;4902597;28;20970;-74
2021/01/16 10:02:34;;;;;;;14.90;8.73;;;0.90;1.00;;;;;;4903026;28;20644;-76
2021/01/16 10:04:57;;;;;;;17.20;9.37;;;0.80;1.00;;;;;;4901153;28;20613;-75
2021/01/16 10:07:19;;;;;;;14.13;8.83;;;0.70;1.00;;;;;;4909857;28;21149;-75
2021/01/16 10:09:44;;;;;;;13.00;8.13;;;0.80;1.00;;;;;;4905203;28;20245;-75
2021/01/16 10:12:07;;;;;;;14.17;9.47;;;;;;;;;;4906159;28;20208;-73
2021/01/16 10:14:36;;;;;;;11.10;7.63;;;0.70;1.00;;;;;;4900261;28;20642;-73
2021/01/16 10:17:10;;;;;;;16.37;9.43;;;0.80;99.90;;;;;;4903352;28;20663;-75
2021/01/16 10:19:38;;;;;;;11.37;7.50;;;0.80;99.90;;;;;;4906588;28;20179;-75
2021/01/16 10:22:02;;;;;;;17.13;9.47;;;;;;;;;;4907401;28;20644;-75
2021/01/16 10:24:25;;;;;;;14.67;8.87;;;0.80;99.90;;;;;;4902095;28;20618;-75
2021/01/16 10:26:48;;;;;;;16.30;8.80;;;;;;;;;;4900377;28;21255;-73
2021/01/16 10:29:28;;;;;;;16.63;10.37;;;0.90;1.00;;;;;;4903624;28;21234;-74
2021/01/16 10:31:53;;;;;;;14.50;9.63;;;0.70;99.90;;;;;;4914126;28;20612;-75
2021/01/16 10:34:15;;;;;;;15.47;8.57;;;;;;;;;;4893645;28;20660;-74
2021/01/16 10:36:39;;;;;;;12.83;8.10;;;0.70;1.00;;;;;;4894473;28;21212;-73
2021/01/16 10:39:09;;;;;;;12.57;8.77;;;0.70;1.00;;;;;;4893440;28;20614;-73
2021/01/16 10:41:35;;;;;;;16.40;8.97;;;0.70;1.00;;;;;;4894735;28;20972;-74
2021/01/16 10:44:00;;;;;;;14.57;8.83;;;1.00;99.90;;;;;;4893981;28;20691;-75
2021/01/16 10:46:29;;;;;;;16.33;10.00;;;;;;;;;;4911810;28;20662;-75
2021/01/16 10:48:53;;;;;;;15.37;9.33;;;0.70;1.00;;;;;;4913016;28;20585;-75
2021/01/16 10:51:15;;;;;;;15.50;8.87;;;;;;;;;;4895332;28;20652;-74
2021/01/16 10:53:39;;;;;;;15.30;8.90;;;0.60;99.90;;;;;;4914002;28;21001;-75
2021/01/16 10:56:09;;;;;;;16.43;9.03;;;0.60;99.90;;;;;;4912456;28;20605;-74
2021/01/16 10:58:31;;;;;;;12.67;7.60;;;;;;;;;;4916585;28;20616;-74
2021/01/16 11:00:55;;;;;;;12.57;7.93;;;0.80;1.00;;;;;;4914665;28;20624;-74
2021/01/16 11:03:19;;;;;;;13.73;8.30;;;1.10;99.90;;;;;;4917126;28;21210;-75
2021/01/16 11:05:49;;;;;;;13.57;8.33;;;1.20;99.90;;;;;;4916154;28;20671;-74
2021/01/16 11:08:16;;;;;;;13.67;8.07;;;1.60;1.00;;;;;;4913347;28;20249;-74
2021/01/16 11:10:38;;;;;;;14.83;7.63;;;;;;;;;;4909022;28;20252;-74
2021/01/16 11:13:22;;;;;;;10.87;7.67;;;1.60;99.90;;;;;;4907716;28;20619;-73
2021/01/16 11:15:44;;;;;;;13.17;8.00;;;1.90;99.90;;;;;;4903721;28;20677;-75
2021/01/16 11:18:26;;;;;;;12.27;7.93;;;1.70;99.90;;;;;;4908210;28;20192;-73
2021/01/16 11:20:56;;;;;;;10.77;6.80;;;1.50;40.00;;;;;;4904300;28;20205;-74
2021/01/16 11:23:30;;;;;;;16.23;8.67;;;0.80;1.00;;;;;;4906806;28;20216;-74
2021/01/16 11:25:52;;;;;;;16.17;10.70;;;1.20;99.90;;;;;;4904544;28;20286;-72
2021/01/16 11:28:19;;;;;;;20.93;13.07;;;1.00;99.90;;;;;;4905440;28;20203;-74
2021/01/16 11:30:44;;;;;;;12.23;8.30;;;0.90;1.00;;;;;;4893394;28;20658;-73
2021/01/16 11:33:12;;;;;;;12.23;7.60;;;-0.60;99.90;;;;;;4904459;28;20734;-73
2021/01/16 11:35:41;;;;;;;9.80;5.80;;;0.80;99.90;;;;;;4905248;28;20962;-73
2021/01/16 11:38:04;;;;;;;11.80;7.40;;;0.50;1.00;;;;;;4904447;28;21162;-73
2021/01/16 11:40:28;;;;;;;14.97;9.37;;;0.40;1.00;;;;;;4907986;28;20616;-73
2021/01/16 11:42:52;;;;;;;13.40;8.17;;;-0.20;99.90;;;;;;4908696;28;20636;-74
2021/01/16 11:45:16;;;;;;;14.57;8.40;;;0.50;34.00;;;;;;4906190;28;21250;-74
2021/01/16 11:47:49;;;;;;;16.03;8.50;;;0.50;1.00;;;;;;4903900;28;20201;-73
2021/01/16 11:50:12;;;;;;;15.90;9.10;;;0.20;99.90;;;;;;4910795;28;20628;-73
2021/01/16 11:52:35;;;;;;;17.00;9.80;;;;;;;;;;4905439;28;20609;-75
2021/01/16 11:55:08;;;;;;;18.77;9.83;;;0.70;1.00;;;;;;4905348;28;20632;-73
2021/01/16 11:57:31;;;;;;;16.37;8.50;;;0.40;1.00;;;;;;4907543;28;20581;-72
2021/01/16 11:59:56;;;;;;;8.87;5.93;;;0.20;1.00;;;;;;4906507;28;20613;-74
2021/01/16 12:02:21;;;;;;;9.90;6.33;;;0.20;1.00;;;;;;4885296;28;20687;-73
2021/01/16 12:04:43;;;;;;;13.13;6.90;;;0.10;6.20;;;;;;4909727;28;21214;-74
2021/01/16 12:07:06;;;;;;;9.33;6.00;;;0.10;1.00;;;;;;4903010;28;20606;-75
2021/01/16 12:09:29;;;;;;;9.77;5.93;;;0.00;1.00;;;;;;4900437;28;20654;-73
2021/01/16 12:11:53;;;;;;;11.00;6.60;;;0.20;1.00;;;;;;4906266;28;20664;-73
2021/01/16 12:14:16;;;;;;;11.63;6.73;;;0.20;1.00;;;;;;4904578;28;21189;-72
2021/01/16 12:16:41;;;;;;;11.17;6.57;;;0.20;1.00;;;;;;4906503;28;20617;-74
2021/01/16 12:19:03;;;;;;;11.00;6.97;;;;;;;;;;4911126;28;20658;-72
2021/01/16 12:21:26;;;;;;;13.33;7.80;;;;;;;;;;4901782;28;20609;-73
2021/01/16 12:23:48;;;;;;;9.10;5.13;;;0.10;1.00;;;;;;4907122;28;20638;-73
2021/01/16 12:26:13;;;;;;;13.47;7.10;;;-0.10;99.90;;;;;;4906089;28;20625;-75
2021/01/16 12:28:39;;;;;;;11.53;6.63;;;-0.20;99.90;;;;;;4907633;28;20604;-72
2021/01/16 12:31:03;;;;;;;9.40;5.77;;;;;;;;;;4906322;28;20609;-74
2021/01/16 12:33:25;;;;;;;10.43;6.00;;;;;;;;;;4905446;28;21009;-72
2021/01/16 12:35:49;;;;;;;7.93;4.87;;;;;;;;;;4902940;28;21205;-72
2021/01/16 12:38:12;;;;;;;10.13;5.67;;;-0.60;1.00;;;;;;4903669;28;20630;-74
2021/01/16 12:40:35;;;;;;;12.83;7.57;;;0.80;1.00;;;;;;4907325;28;21207;-73
2021/01/16 12:42:57;;;;;;;11.70;7.20;;;;;;;;;;4905982;28;20690;-74
2021/01/16 12:45:22;;;;;;;13.93;7.93;;;-0.80;99.90;;;;;;4905647;28;20617;-73
2021/01/16 12:47:47;;;;;;;10.27;6.40;;;-0.10;1.00;;;;;;4901484;28;20630;-73
2021/01/16 12:50:10;;;;;;;13.00;7.50;;;-0.10;1.00;;;;;;4904565;28;21148;-74
2021/01/16 12:52:35;;;;;;;16.23;8.73;;;-0.80;99.90;;;;;;4905994;28;20625;-73
2021/01/16 12:54:59;;;;;;;11.60;7.07;;;0.10;99.90;;;;;;4888816;28;20626;-74
2021/01/16 12:57:24;;;;;;;13.03;7.23;;;0.30;99.90;;;;;;4902526;28;20609;-74
2021/01/16 12:59:49;;;;;;;13.37;6.63;;;0.20;99.90;;;;;;4895897;28;20655;-73